NERRS METEOROLOGICAL SITE AT GRAND BAY HADS current weather conditions

sailwx.info

Wind from 223 at 7 knots gusting 11

Air temperature 27.6° C
Dewpoint 24.9° C

Last reported at 2019-Oct-15 18:45 UTC.
Time now 2019-Oct-15 19:42 UTC

Location: N 30°21' W 088°25'.
View on Google Maps.

See reports from other nearby stations

  
Tides and Currents Weather Stations Pressure Air Temp Water Temp Dewpoint Dewpoint Depression Visibility Wind Speed Wind Dir Waves Ship Positions
date/time (UTC)wind fromknots sea level pressurealtimeterstation pressurevisibilityair tempwater tempwave heightnotes
2019-Oct-15 18:45 223 7 gusting 11 27.6
2019-Oct-15 17:45 245 3 gusting 4 26.6
2019-Oct-15 16:45 192 3 gusting 6 26.5
2019-Oct-15 15:45 151 1 gusting 2 26.5
2019-Oct-15 14:45 055 5 gusting 7 25.0
2019-Oct-15 13:45 052 5 gusting 9 24.0
2019-Oct-15 12:45 044 5 gusting 7 23.8
2019-Oct-15 11:45 091 4 gusting 6 24.1
2019-Oct-15 10:45 097 5 gusting 7 24.3
2019-Oct-15 09:45 082 5 gusting 6 23.8
2019-Oct-15 08:45 072 5 gusting 7 23.3
2019-Oct-15 07:45 090 5 gusting 8 23.8
2019-Oct-15 06:45 088 6 gusting 8 23.4
2019-Oct-15 05:45 067 6 gusting 8 23.0
2019-Oct-15 04:45 069 8 gusting 10 22.8
2019-Oct-15 03:45 066 7 gusting 10 22.6
2019-Oct-15 02:45 074 7 gusting 9 22.9
2019-Oct-15 01:45 046 5 gusting 7 22.6
2019-Oct-15 00:45 042 7 gusting 9 22.8
2019-Oct-14 23:45 026 6 gusting 9 23.1
2019-Oct-14 22:45 015 9 gusting 13 23.6
2019-Oct-14 21:45 357 9 gusting 12 24.6
2019-Oct-14 20:45 349 8 gusting 10 26.4
2019-Oct-14 19:45 358 6 gusting 9 26.9
2019-Oct-14 18:45 347 5 gusting 11 27.0
2019-Oct-14 17:45 021 2 gusting 7 27.1
2019-Oct-14 16:45 353 6 gusting 8 25.6
2019-Oct-14 15:45 015 5 gusting 8 26.0
2019-Oct-14 14:45 054 5 gusting 6 23.9
2019-Oct-14 13:45 057 6 gusting 8 21.9
2019-Oct-14 12:45 065 4 gusting 6 20.9
2019-Oct-14 11:45 009 4 gusting 6 19.4
2019-Oct-14 10:45 042 3 gusting 4 21.6
2019-Oct-14 09:45 066 4 gusting 5 21.6
2019-Oct-14 08:45 070 6 gusting 8 21.1
2019-Oct-14 07:45 023 4 gusting 6 20.3
2019-Oct-14 06:45 040 5 gusting 8 19.6
2019-Oct-14 05:45 015 6 gusting 8 19.7
2019-Oct-14 04:45 355 4 gusting 6 20.5
2019-Oct-14 03:45 037 4 gusting 6 21.2
2019-Oct-14 01:45 010 8 gusting 10 22.1
2019-Oct-14 00:45 012 7 gusting 11 23.4
2019-Oct-13 23:45 033 5 gusting 7 25.0
2019-Oct-13 22:45 149 2 gusting 3 25.7
2019-Oct-13 21:45 165 5 gusting 8 25.2
2019-Oct-13 20:45 026 4 gusting 9 27.0
2019-Oct-13 19:45 168 3 gusting 5 25.2